Terminal Aerodrome Forecast
Issued by NWS

Home | Current Version | Previous Version | Text Only | Print | Product List | Glossary On
Versions: 1 2 3 4 5 6 7 8 9 10 11 12 13 14 15 16 17 18
000
FTUS45 KCYS 271120
TAFAIA
TAF
KAIA 271120Z 2712/2812 16010KT 2SM BR OVC003
      TEMPO 2712/2714 3/4SM BR OVC001
     FM271500 21007KT P6SM SCT050
     FM271900 17009KT P6SM SCT080=

USA.gov is the U.S. government's official web portal to all federal, state and local government web resources and services.